sensor_id;sensor_type;location;lat;lon;timestamp;pressure;altitude;pressure_sealevel;temperature;humidity
27864;BME280;15980;51.092;13.916;2023-02-26T00:06:44;98022.97;;;-0.66;96.56
27864;BME280;15980;51.092;13.916;2023-02-26T00:16:49;98034.88;;;-0.72;96.46
27864;BME280;15980;51.092;13.916;2023-02-26T00:26:52;98040.16;;;-0.61;96.51
27864;BME280;15980;51.092;13.916;2023-02-26T00:37:14;98043.44;;;-0.65;97.25
27864;BME280;15980;51.092;13.916;2023-02-26T00:57:44;98065.38;;;-0.76;97.18
27864;BME280;15980;51.092;13.916;2023-02-26T01:07:59;98058.59;;;-0.74;96.99
27864;BME280;15980;51.092;13.916;2023-02-26T01:18:11;98070.00;;;-0.82;97.04
27864;BME280;15980;51.092;13.916;2023-02-26T01:28:13;98077.25;;;-0.82;97.15
27864;BME280;15980;51.092;13.916;2023-02-26T01:38:31;98087.44;;;-0.74;97.38
27864;BME280;15980;51.092;13.916;2023-02-26T01:48:48;98096.31;;;-0.74;97.55
27864;BME280;15980;51.092;13.916;2023-02-26T01:58:49;98109.78;;;-0.74;97.10
27864;BME280;15980;51.092;13.916;2023-02-26T02:08:49;98124.09;;;-0.78;97.83
27864;BME280;15980;51.092;13.916;2023-02-26T02:39:56;98169.38;;;-0.80;98.13
27864;BME280;15980;51.092;13.916;2023-02-26T02:50:27;98179.53;;;-0.72;96.63
27864;BME280;15980;51.092;13.916;2023-02-26T03:00:33;98190.03;;;-0.71;96.18
27864;BME280;15980;51.092;13.916;2023-02-26T03:10:35;98205.44;;;-0.76;96.37
27864;BME280;15980;51.092;13.916;2023-02-26T03:41:29;98244.47;;;-0.74;96.94
27864;BME280;15980;51.092;13.916;2023-02-26T03:51:32;98271.94;;;-0.72;97.65
27864;BME280;15980;51.092;13.916;2023-02-26T04:01:46;98278.94;;;-0.71;96.88
27864;BME280;15980;51.092;13.916;2023-02-26T04:11:48;98301.63;;;-0.82;96.93
27864;BME280;15980;51.092;13.916;2023-02-26T04:21:50;98316.97;;;-0.87;97.31
27864;BME280;15980;51.092;13.916;2023-02-26T04:31:50;98326.13;;;-0.78;96.70
27864;BME280;15980;51.092;13.916;2023-02-26T04:41:51;98338.25;;;-0.81;95.75
27864;BME280;15980;51.092;13.916;2023-02-26T04:51:52;98345.78;;;-0.83;95.52
27864;BME280;15980;51.092;13.916;2023-02-26T05:01:53;98364.13;;;-0.85;95.51
27864;BME280;15980;51.092;13.916;2023-02-26T05:11:53;98375.16;;;-0.81;96.07
27864;BME280;15980;51.092;13.916;2023-02-26T05:21:53;98385.38;;;-0.83;95.65
27864;BME280;15980;51.092;13.916;2023-02-26T05:31:53;98396.97;;;-0.78;95.70
27864;BME280;15980;51.092;13.916;2023-02-26T05:41:54;98416.63;;;-0.82;95.57
27864;BME280;15980;51.092;13.916;2023-02-26T05:51:54;98436.56;;;-0.88;95.53
27864;BME280;15980;51.092;13.916;2023-02-26T06:01:54;98452.97;;;-0.90;95.32
27864;BME280;15980;51.092;13.916;2023-02-26T06:11:55;98464.06;;;-0.86;95.13
27864;BME280;15980;51.092;13.916;2023-02-26T06:21:55;98480.72;;;-0.79;95.85
27864;BME280;15980;51.092;13.916;2023-02-26T06:31:55;98494.19;;;-0.74;95.61
27864;BME280;15980;51.092;13.916;2023-02-26T06:41:56;98525.97;;;-0.71;94.80
27864;BME280;15980;51.092;13.916;2023-02-26T06:51:56;98531.34;;;-0.56;94.02
27864;BME280;15980;51.092;13.916;2023-02-26T07:01:56;98543.72;;;-0.40;93.88
27864;BME280;15980;51.092;13.916;2023-02-26T07:11:57;98573.66;;;-0.41;92.58
27864;BME280;15980;51.092;13.916;2023-02-26T07:21:57;98582.81;;;-0.37;92.09
27864;BME280;15980;51.092;13.916;2023-02-26T07:31:57;98606.53;;;-0.34;92.21
27864;BME280;15980;51.092;13.916;2023-02-26T07:41:58;98602.41;;;-0.06;91.85
27864;BME280;15980;51.092;13.916;2023-02-26T07:52:00;98621.75;;;0.31;91.49
27864;BME280;15980;51.092;13.916;2023-02-26T08:02:00;98640.88;;;0.40;89.20
27864;BME280;15980;51.092;13.916;2023-02-26T08:12:01;98653.31;;;0.31;87.71
27864;BME280;15980;51.092;13.916;2023-02-26T08:22:01;98662.38;;;0.66;88.81
27864;BME280;15980;51.092;13.916;2023-02-26T08:32:02;98673.09;;;0.86;87.69
27864;BME280;15980;51.092;13.916;2023-02-26T08:42:02;98687.19;;;0.73;89.50
27864;BME280;15980;51.092;13.916;2023-02-26T08:52:03;98704.03;;;0.49;89.03
27864;BME280;15980;51.092;13.916;2023-02-26T09:02:03;98724.00;;;0.53;88.16
27864;BME280;15980;51.092;13.916;2023-02-26T09:12:04;98744.75;;;0.63;87.62
27864;BME280;15980;51.092;13.916;2023-02-26T09:22:04;98755.19;;;0.95;87.08
27864;BME280;15980;51.092;13.916;2023-02-26T09:32:05;98777.22;;;1.22;83.94
27864;BME280;15980;51.092;13.916;2023-02-26T09:52:46;98807.41;;;1.45;84.06
27864;BME280;15980;51.092;13.916;2023-02-26T10:03:02;98813.53;;;1.61;81.75
27864;BME280;15980;51.092;13.916;2023-02-26T10:13:29;98839.63;;;1.36;82.95
27864;BME280;15980;51.092;13.916;2023-02-26T10:23:39;98855.28;;;1.29;81.72
27864;BME280;15980;51.092;13.916;2023-02-26T10:33:54;98872.06;;;1.91;78.94
27864;BME280;15980;51.092;13.916;2023-02-26T10:44:11;98879.88;;;1.97;79.44
27864;BME280;15980;51.092;13.916;2023-02-26T10:54:28;98891.56;;;1.87;78.44
27864;BME280;15980;51.092;13.916;2023-02-26T11:04:31;98903.06;;;1.54;80.16
27864;BME280;15980;51.092;13.916;2023-02-26T11:14:32;98901.38;;;1.68;78.83
27864;BME280;15980;51.092;13.916;2023-02-26T11:24:55;98901.72;;;2.50;76.04
27864;BME280;15980;51.092;13.916;2023-02-26T11:34:54;98916.53;;;2.97;76.53
27864;BME280;15980;51.092;13.916;2023-02-26T11:44:56;98928.25;;;2.87;74.60
27864;BME280;15980;51.092;13.916;2023-02-26T11:55:12;98917.47;;;2.82;76.40
27864;BME280;15980;51.092;13.916;2023-02-26T12:05:17;98926.50;;;2.72;75.29
27864;BME280;15980;51.092;13.916;2023-02-26T12:16:01;98917.72;;;3.14;74.56
27864;BME280;15980;51.092;13.916;2023-02-26T12:46:41;98938.72;;;2.70;74.84
27864;BME280;15980;51.092;13.916;2023-02-26T13:07:10;98946.56;;;2.27;77.33
27864;BME280;15980;51.092;13.916;2023-02-26T13:27:31;98970.09;;;2.76;76.26
27864;BME280;15980;51.092;13.916;2023-02-26T13:37:40;99015.06;;;0.87;83.92
27864;BME280;15980;51.092;13.916;2023-02-26T14:39:07;99010.91;;;1.86;83.00
27864;BME280;15980;51.092;13.916;2023-02-26T14:49:21;99043.19;;;0.96;85.30
27864;BME280;15980;51.092;13.916;2023-02-26T15:20:15;99035.44;;;0.22;88.80
27864;BME280;15980;51.092;13.916;2023-02-26T15:30:18;99042.94;;;0.10;90.74
27864;BME280;15980;51.092;13.916;2023-02-26T15:40:19;99044.03;;;0.09;90.80
27864;BME280;15980;51.092;13.916;2023-02-26T15:50:20;99051.84;;;0.10;91.26
27864;BME280;15980;51.092;13.916;2023-02-26T16:00:23;99064.69;;;0.50;90.80
27864;BME280;15980;51.092;13.916;2023-02-26T16:10:38;99065.75;;;0.44;90.51
27864;BME280;15980;51.092;13.916;2023-02-26T16:20:45;99074.03;;;0.22;90.40
27864;BME280;15980;51.092;13.916;2023-02-26T16:30:50;99075.84;;;0.07;89.47
27864;BME280;15980;51.092;13.916;2023-02-26T16:41:05;99096.69;;;-0.26;89.07
27864;BME280;15980;51.092;13.916;2023-02-26T16:51:11;99107.56;;;-0.48;90.19
27864;BME280;15980;51.092;13.916;2023-02-26T17:01:16;99128.94;;;-0.73;90.85
27864;BME280;15980;51.092;13.916;2023-02-26T17:11:21;99147.53;;;-0.72;92.49
27864;BME280;15980;51.092;13.916;2023-02-26T17:21:23;99163.88;;;-0.51;92.88
27864;BME280;15980;51.092;13.916;2023-02-26T17:31:23;99176.88;;;-0.75;92.74
27864;BME280;15980;51.092;13.916;2023-02-26T17:41:23;99196.72;;;-1.08;91.69
27864;BME280;15980;51.092;13.916;2023-02-26T17:51:24;99219.31;;;-1.53;91.93
27864;BME280;15980;51.092;13.916;2023-02-26T18:01:24;99230.19;;;-1.81;91.69
27864;BME280;15980;51.092;13.916;2023-02-26T18:11:26;99239.31;;;-1.82;92.62
27864;BME280;15980;51.092;13.916;2023-02-26T18:21:26;99249.22;;;-2.05;92.85
27864;BME280;15980;51.092;13.916;2023-02-26T18:31:27;99251.81;;;-2.10;93.82
27864;BME280;15980;51.092;13.916;2023-02-26T18:41:28;99264.69;;;-1.95;95.00
27864;BME280;15980;51.092;13.916;2023-02-26T18:51:29;99276.16;;;-1.83;93.97
27864;BME280;15980;51.092;13.916;2023-02-26T19:01:29;99286.63;;;-1.70;93.32
27864;BME280;15980;51.092;13.916;2023-02-26T19:11:29;99292.56;;;-1.68;93.05
27864;BME280;15980;51.092;13.916;2023-02-26T19:21:31;99305.91;;;-1.56;92.82
27864;BME280;15980;51.092;13.916;2023-02-26T19:31:31;99329.56;;;-1.58;92.44
27864;BME280;15980;51.092;13.916;2023-02-26T19:41:32;99340.66;;;-1.54;92.40
27864;BME280;15980;51.092;13.916;2023-02-26T19:51:33;99352.56;;;-1.50;92.78
27864;BME280;15980;51.092;13.916;2023-02-26T20:01:33;99366.59;;;-1.65;92.00
27864;BME280;15980;51.092;13.916;2023-02-26T20:11:34;99378.88;;;-1.86;92.27
27864;BME280;15980;51.092;13.916;2023-02-26T20:21:34;99394.75;;;-2.01;91.16
27864;BME280;15980;51.092;13.916;2023-02-26T20:31:34;99403.69;;;-2.12;91.13
27864;BME280;15980;51.092;13.916;2023-02-26T20:41:35;99407.13;;;-2.29;90.75
27864;BME280;15980;51.092;13.916;2023-02-26T20:51:41;99419.25;;;-2.55;90.75
27864;BME280;15980;51.092;13.916;2023-02-26T21:01:42;99419.06;;;-2.88;91.11
27864;BME280;15980;51.092;13.916;2023-02-26T21:11:42;99418.94;;;-3.17;91.52
27864;BME280;15980;51.092;13.916;2023-02-26T21:21:42;99437.59;;;-3.45;91.59
27864;BME280;15980;51.092;13.916;2023-02-26T21:31:43;99459.69;;;-3.61;92.17
27864;BME280;15980;51.092;13.916;2023-02-26T21:41:43;99467.50;;;-3.71;92.68
27864;BME280;15980;51.092;13.916;2023-02-26T21:51:44;99467.97;;;-3.93;92.02
27864;BME280;15980;51.092;13.916;2023-02-26T22:01:44;99472.56;;;-4.12;92.05
27864;BME280;15980;51.092;13.916;2023-02-26T22:11:45;99469.25;;;-4.44;90.45
27864;BME280;15980;51.092;13.916;2023-02-26T22:21:45;99478.69;;;-4.59;91.48
27864;BME280;15980;51.092;13.916;2023-02-26T22:31:46;99475.34;;;-4.36;92.77
27864;BME280;15980;51.092;13.916;2023-02-26T22:41:46;99483.59;;;-4.20;93.47
27864;BME280;15980;51.092;13.916;2023-02-26T22:51:46;99482.06;;;-4.27;92.03
27864;BME280;15980;51.092;13.916;2023-02-26T23:01:47;99497.38;;;-4.53;91.24
27864;BME280;15980;51.092;13.916;2023-02-26T23:11:47;99493.91;;;-4.78;90.66
27864;BME280;15980;51.092;13.916;2023-02-26T23:21:47;99500.38;;;-4.86;92.01
27864;BME280;15980;51.092;13.916;2023-02-26T23:31:48;99499.16;;;-4.65;92.98
27864;BME280;15980;51.092;13.916;2023-02-26T23:41:48;99512.25;;;-4.57;92.95
27864;BME280;15980;51.092;13.916;2023-02-26T23:51:48;99516.13;;;-4.71;92.02
